createdAt,value
2023-04-28T03:34:01.802Z,10.93
2023-04-28T03:44:37.424Z,7.60
2023-04-28T03:55:14.937Z,8.13
2023-04-28T04:05:51.059Z,4.63
2023-04-28T04:16:26.814Z,6.57
2023-04-28T04:27:05.390Z,8.75
2023-04-28T04:37:47.560Z,8.25
2023-04-28T04:48:25.119Z,6.82
2023-04-28T04:59:01.287Z,5.50
2023-04-28T05:09:57.109Z,7.75
2023-04-28T05:20:32.914Z,7.57
2023-04-28T05:31:08.784Z,10.85
2023-04-28T05:41:44.755Z,9.27
2023-04-28T05:52:21.370Z,9.07
2023-04-28T06:02:57.094Z,8.30
2023-04-28T06:13:33.036Z,15.77
2023-04-28T06:24:08.731Z,11.60
2023-04-28T06:34:47.464Z,13.53
2023-04-28T06:45:23.323Z,12.07
2023-04-28T06:55:59.099Z,13.23
2023-04-28T07:06:36.995Z,12.95
2023-04-28T07:17:12.701Z,15.55
2023-04-28T07:27:48.453Z,12.70
2023-04-28T07:38:24.313Z,8.82
2023-04-28T07:49:00.426Z,7.72
2023-04-28T07:59:36.168Z,10.15
2023-04-28T08:10:12.285Z,13.80
2023-04-28T08:20:47.858Z,11.68
2023-04-28T08:31:23.822Z,10.73
2023-04-28T08:41:59.523Z,8.95
2023-04-28T08:52:36.424Z,9.75
2023-04-28T09:03:13.727Z,8.27
2023-04-28T09:13:50.095Z,10.35
2023-04-28T09:24:33.335Z,12.13
2023-04-28T09:35:09.380Z,9.73
2023-04-28T09:45:45.818Z,8.20
2023-04-28T09:56:25.379Z,8.13
2023-04-28T10:17:38.660Z,7.70
2023-04-28T10:28:14.609Z,15.18
2023-04-28T10:39:09.736Z,13.60
2023-04-28T10:49:57.594Z,10.32
2023-04-28T11:00:33.274Z,8.65
2023-04-28T11:11:25.975Z,8.85
2023-04-28T11:22:11.775Z,7.75
2023-04-28T11:32:50.386Z,9.98
2023-04-28T11:43:46.081Z,9.03
2023-04-28T11:54:29.524Z,9.02
2023-04-28T12:05:07.456Z,14.70
2023-04-28T12:15:43.387Z,13.73
2023-04-28T12:26:25.585Z,9.60
2023-04-28T12:37:02.814Z,7.93
2023-04-28T12:47:39.686Z,7.53
2023-04-28T12:58:15.311Z,9.27
2023-04-28T13:08:50.982Z,6.13
2023-04-28T13:19:27.643Z,4.95
2023-04-28T13:30:05.325Z,7.35
2023-04-28T13:40:42.266Z,5.63
2023-04-28T13:51:17.992Z,6.90
2023-04-28T14:01:54.028Z,4.93
2023-04-28T14:12:29.632Z,5.80
2023-04-28T14:23:05.149Z,8.45
2023-04-28T14:33:41.521Z,1.20
2023-04-28T14:44:17.225Z,3.03
2023-04-28T14:54:54.324Z,1.63
2023-04-28T15:05:30.247Z,1.60
